Wawasan Ruby — 3EVU7 — position and weather

sailwx.info

Track history (hours):
 
Tides and Currents Weather Stations Pressure Air Temp Water Temp Dewpoint Dewpoint Depression Visibility Wind Speed Wind Dir Waves Ship Positions

Wawasan Ruby

Last reported at 2017-Dec-10 03:20 UTC. Time now 2017-Dec-12 18:06 UTC.
Position N 01°13' E 103°57'.

Length 146 m; draft 8.7 m.

Type: Tanker. MMSI: 355619000.

Date/timePositionNaut miles runAvg speedWind from/ knotsBaromVisibWave heightAir tempDewpointWater temp
2017-Dec-10 03:20N 01°13' E 103°57'1 4.7
2017-Dec-10 03:00N 01°13' E 103°55'5 9.4
2017-Dec-10 02:30N 01°11' E 103°51'4 7.8
2017-Dec-10 02:00N 01°09' E 103°47'4 7.9
2017-Dec-10 01:30N 01°06' E 103°45'4 8.0
2017-Dec-10 01:00N 01°04' E 103°42'4 7.9
2017-Dec-10 00:30N 01°03' E 103°38'5 9.6
2017-Dec-10 00:00N 01°06' E 103°34'5 9.6
2017-Dec-09 23:27N 01°08' E 103°29'4 9.8
2017-Dec-09 23:00N 01°11' E 103°25'6 9.9
2017-Dec-09 22:24N 01°15' E 103°21'  
Track history (hours):
 
Tides and Currents Weather Stations Pressure Air Temp Water Temp Dewpoint Dewpoint Depression Visibility Wind Speed Wind Dir Waves Ship Positions

Wawasan Ruby

Last reported at 2017-Dec-10 03:20 UTC. Time now 2017-Dec-12 18:06 UTC.
Position N 01°13' E 103°57'.

Length 146 m; draft 8.7 m.

Type: Tanker. MMSI: 355619000.

Date/timePositionNaut miles runAvg speedWind from/ knotsBaromVisibWave heightAir tempDewpointWater temp
2017-Dec-10 03:20N 01°13' E 103°57'1 4.7
2017-Dec-10 03:00N 01°13' E 103°55'5 9.4
2017-Dec-10 02:30N 01°11' E 103°51'4 7.8
2017-Dec-10 02:00N 01°09' E 103°47'4 7.9
2017-Dec-10 01:30N 01°06' E 103°45'4 8.0
2017-Dec-10 01:00N 01°04' E 103°42'4 7.9
2017-Dec-10 00:30N 01°03' E 103°38'5 9.6
2017-Dec-10 00:00N 01°06' E 103°34'5 9.6
2017-Dec-09 23:27N 01°08' E 103°29'4 9.8
2017-Dec-09 23:00N 01°11' E 103°25'6 9.9
2017-Dec-09 22:24N 01°15' E 103°21'  

Dump ship's entire track history